Bolivian Plane Crashes, Killing , Passenger Manifest

Sunday, November 3, 2013
By George Hatcher


Updated
An Aerocon Fairchild Swearingen Metroliner en route from the Teniente Jorge Henrich Arauz Airport developed a problem as it caught fire upon landing at 4 p.m. at Riberalta Airport.

Three officials of the Governorate of Beni were aboard.

The Bolivian aircraft came to rest wheels up and was consumed by the fire.

Of the sixteen passengers and two crew, eight aboard sustained fatal injuries. The pilot and copilot survived but are in grave condition. Riberalta Hospital had previously reported eight dead and six wounded. The dead were significantly burned and will have to be identified through DNA.

The rainfall was heavy as the plane landed, and may have exacerbated the pilot’s difficulty.

Eight of the injured were taken to the hospital Riberalta while two took him to the clinic December 4. While the pilots were evacuated to the city of Guayaramerín and then transferred to Santa Cruz.

Weather about the time of the accident (16:00 LT / 20:00 Z):
SLRI 032100Z 19005KT 3000 -RA BKN004 FEW020CB OVC070 24/24 Q1009
SLRI 031900Z 15008KT 5000 VCSH BKN015 FEW020CB BKN200 28/23 Q1010

Injured

1.- Oscar Adrés Tacata Sossa
2.- Alejandra Azad Lazo
3.- Leslie Pérez Gil
4.- Zenón Peréz Ramírez
5.- Jenny Gutiérrez Farah
6.- Cecilia Tapia Salinas ( copiloto)
7.- Kevin Roca Alpire ( Piloto)
8.- Jorge Ernesto Morán Cruz
9.- Jackeline Ruiz Suárez
10.- Luis Alberto Suárez Velarde

Deceased
1.- Fernando Chacón
2.- Daniel Ishita Guarena
3.- Herlan Rodríguez
4.- Rober Suárez Vargas
5.- Shirley Ojopi Carrillo
6.- Maria Georgia Saucedo
7.- Rosio Álvarez Azad (menor de seis años)
8.- Rodrigo Molina Peñaloza

Print Friendly, PDF & Email

Leave a Reply

RSS Plane Crash News

Blogroll

  • Air Consumer.gov
  • AirCrashConsultants
  • Airfleets
  • Airliners.net
  • AOPA
  • Bird Strike Database
  • Bird Strike Database Query
  • EASA
  • FAA
  • Find A Pilot
  • Frixo
  • IATA
  • International Civil Aviation Organization
  • Montreal Convention MC99 English
  • Nasa
  • NOAA
  • NTSB
  • RITA
  • U.S. Office of Special Counsel
October 2017
M T W T F S S
« Sep    
 1
2345678
9101112131415
16171819202122
23242526272829
3031  
  • UTair Aviation Flight Makes Emergency Landing at Vnukovo International Airport https://t.co/zzN8fMjs73
    about 4 hours ago
  • Indonesia AirAsia Flight Returns to Perth due to Loss of Cabin Pressure https://t.co/0HiVKpx5FS
    about 5 hours ago
  • EasyJet Flight Diverts to Germany due to Smoke in Cockpit https://t.co/u9jjxmXBOu
    about 5 hours ago
  • Tassili Airlines Flight Makes Emergency Landing in Algeria https://t.co/T7YhyPuoKX
    about 5 hours ago
  • Passenger plane hit by drone while flying into Quebec airport https://t.co/FBeGdgD2r6
    about 6 hours ago